createdAt,value
2023-04-13T00:03:27.552Z,7.50
2023-04-13T00:08:34.789Z,6.50
2023-04-13T00:13:45.092Z,5.23
2023-04-13T00:18:52.681Z,4.90
2023-04-13T00:23:58.273Z,5.20
2023-04-13T00:29:03.837Z,7.93
2023-04-13T00:34:09.592Z,4.37
2023-04-13T00:39:15.857Z,6.37
2023-04-13T00:44:22.401Z,5.07
2023-04-13T00:49:28.317Z,5.97
2023-04-13T00:54:35.756Z,6.33
2023-04-13T00:59:41.502Z,5.17
2023-04-13T01:04:48.850Z,6.87
2023-04-13T01:10:18.696Z,4.20
2023-04-13T01:15:26.213Z,7.60
2023-04-13T01:20:33.813Z,6.33
2023-04-13T01:25:54.130Z,6.30
2023-04-13T01:31:04.687Z,5.77
2023-04-13T01:36:12.632Z,6.30
2023-04-13T01:41:18.636Z,4.63
2023-04-13T01:46:27.568Z,3.90
2023-04-13T01:51:46.836Z,5.63
2023-04-13T01:56:57.287Z,3.33
2023-04-13T02:02:02.917Z,3.90
2023-04-13T02:07:12.066Z,3.77
2023-04-13T02:12:19.260Z,7.10
2023-04-13T02:17:25.764Z,4.90
2023-04-13T02:22:31.286Z,4.83
2023-04-13T02:27:37.127Z,5.00
2023-04-13T02:32:44.987Z,4.07
2023-04-13T02:37:50.735Z,4.87
2023-04-13T02:42:57.429Z,5.87
2023-04-13T02:48:04.956Z,6.53
2023-04-13T02:53:10.823Z,5.97
2023-04-13T02:58:17.400Z,3.60
2023-04-13T03:03:24.775Z,4.63
2023-04-13T03:08:30.690Z,4.80
2023-04-13T03:13:47.234Z,7.07
2023-04-13T03:18:54.706Z,5.03
2023-04-13T03:24:01.069Z,4.73
2023-04-13T03:29:07.181Z,5.53
2023-04-13T03:34:14.304Z,4.40
2023-04-13T03:39:20.704Z,5.90
2023-04-13T03:44:26.388Z,6.30
2023-04-13T03:49:32.316Z,4.27
2023-04-13T03:54:38.342Z,6.57
2023-04-13T03:59:43.961Z,6.70
2023-04-13T04:04:51.221Z,5.37
2023-04-13T04:09:56.914Z,6.07
2023-04-13T04:15:02.648Z,6.57
2023-04-13T04:20:11.482Z,5.77
2023-04-13T04:25:18.909Z,5.97
2023-04-13T04:30:28.441Z,5.43
2023-04-13T04:35:34.438Z,7.80
2023-04-13T04:40:42.863Z,5.57
2023-04-13T04:45:51.543Z,6.30
2023-04-13T04:50:58.190Z,7.80
2023-04-13T04:56:05.795Z,6.33
2023-04-13T05:01:15.707Z,6.23
2023-04-13T05:06:21.472Z,9.10
2023-04-13T05:11:27.406Z,7.17
2023-04-13T05:16:34.876Z,7.63
2023-04-13T05:21:42.065Z,7.20
2023-04-13T05:26:47.745Z,9.43
2023-04-13T05:31:54.963Z,7.77
2023-04-13T05:37:00.957Z,7.57
2023-04-13T05:42:06.820Z,7.70
2023-04-13T05:47:14.015Z,7.53
2023-04-13T05:52:22.251Z,10.33
2023-04-13T05:57:27.972Z,10.33
2023-04-13T06:02:35.077Z,8.90
2023-04-13T06:07:42.669Z,8.00
2023-04-13T06:12:48.674Z,9.00
2023-04-13T06:17:55.392Z,7.47
2023-04-13T06:23:01.484Z,8.00
2023-04-13T06:28:08.158Z,8.90
2023-04-13T06:33:15.662Z,7.47
2023-04-13T06:38:21.732Z,6.77
2023-04-13T06:43:32.020Z,6.60
2023-04-13T06:48:56.230Z,6.13
2023-04-13T06:54:04.149Z,6.00
2023-04-13T06:59:09.787Z,6.10
2023-04-13T07:04:15.509Z,6.40
2023-04-13T07:09:22.251Z,6.50
2023-04-13T07:14:27.837Z,6.50
2023-04-13T07:19:34.607Z,5.07
2023-04-13T07:24:40.273Z,5.80
2023-04-13T07:29:47.663Z,4.73
2023-04-13T07:34:56.653Z,5.47
2023-04-13T07:40:02.920Z,5.23
2023-04-13T07:45:12.218Z,5.60
2023-04-13T07:50:18.318Z,5.10
2023-04-13T07:55:24.961Z,6.00
2023-04-13T08:00:30.898Z,5.00
2023-04-13T08:05:38.613Z,5.90
2023-04-13T08:10:45.841Z,5.17
2023-04-13T08:15:54.670Z,5.03
2023-04-13T08:21:01.829Z,5.17
2023-04-13T08:26:07.773Z,4.83
2023-04-13T08:31:17.095Z,5.33
2023-04-13T08:36:27.590Z,6.27
2023-04-13T08:41:41.559Z,4.10
2023-04-13T08:46:51.238Z,4.87
2023-04-13T08:52:03.836Z,5.17
2023-04-13T08:57:13.737Z,3.53
2023-04-13T09:02:26.749Z,3.60
2023-04-13T09:07:36.818Z,4.40
2023-04-13T09:12:44.225Z,2.20
2023-04-13T09:17:50.761Z,1.97
2023-04-13T09:22:58.699Z,4.43
2023-04-13T09:28:05.642Z,3.33
2023-04-13T09:33:12.991Z,4.30
2023-04-13T09:38:18.749Z,3.47
2023-04-13T09:43:24.550Z,4.47
2023-04-13T09:48:32.008Z,3.50
2023-04-13T09:53:48.428Z,4.27
2023-04-13T09:58:54.512Z,3.23
2023-04-13T10:04:02.187Z,2.03
2023-04-13T10:09:08.971Z,1.83
2023-04-13T10:14:26.806Z,2.73
2023-04-13T10:19:44.330Z,3.40
2023-04-13T10:24:53.123Z,3.97
2023-04-13T10:30:00.955Z,1.67
2023-04-13T10:35:15.331Z,1.90
2023-04-13T10:40:21.121Z,3.70
2023-04-13T10:45:39.988Z,1.57
2023-04-13T10:50:45.508Z,2.40
2023-04-13T10:55:52.938Z,2.40
2023-04-13T11:01:00.190Z,2.00
2023-04-13T11:06:07.052Z,2.33
2023-04-13T11:11:15.178Z,4.63
2023-04-13T11:16:21.092Z,4.50
2023-04-13T11:21:27.138Z,2.13
2023-04-13T11:26:43.192Z,2.43
2023-04-13T11:31:48.499Z,2.40
2023-04-13T11:37:04.910Z,1.93
2023-04-13T11:42:10.783Z,3.63
2023-04-13T11:47:18.940Z,2.83
2023-04-13T11:52:25.044Z,2.90
2023-04-13T11:57:30.929Z,1.90
2023-04-13T12:02:51.480Z,4.77
2023-04-13T12:07:46.636Z,3.60
2023-04-13T12:13:17.505Z,2.87
2023-04-13T12:18:15.632Z,3.03
2023-04-13T12:23:24.307Z,3.23
2023-04-13T12:28:34.628Z,5.97
2023-04-13T12:33:40.814Z,3.90
2023-04-13T12:38:46.494Z,3.50
2023-04-13T12:43:51.975Z,3.20
2023-04-13T12:48:57.986Z,3.93
2023-04-13T12:54:03.871Z,3.93
2023-04-13T12:59:09.592Z,2.70
2023-04-13T13:04:15.148Z,3.70
2023-04-13T13:09:20.869Z,2.17
2023-04-13T13:14:26.447Z,3.17
2023-04-13T13:19:32.139Z,2.83
2023-04-13T13:24:39.258Z,2.73
2023-04-13T13:29:45.319Z,3.57
2023-04-13T13:34:51.173Z,4.77
2023-04-13T13:39:56.715Z,4.30
2023-04-13T13:45:02.325Z,6.20
2023-04-13T13:50:08.836Z,1.80
2023-04-13T13:55:17.951Z,2.00
2023-04-13T14:00:24.035Z,4.57
2023-04-13T14:05:29.475Z,3.23
2023-04-13T14:10:37.109Z,2.90
2023-04-13T14:15:42.684Z,3.03
2023-04-13T14:20:48.366Z,3.10
2023-04-13T14:25:53.874Z,3.07
2023-04-13T14:30:59.524Z,1.97
2023-04-13T14:36:07.158Z,2.43
2023-04-13T14:41:12.634Z,1.90
2023-04-13T14:46:18.339Z,1.50
2023-04-13T14:51:24.184Z,3.03
2023-04-13T14:56:30.037Z,2.20
2023-04-13T15:01:35.706Z,2.00
2023-04-13T15:06:41.341Z,2.17
2023-04-13T15:11:49.368Z,3.03
2023-04-13T15:16:54.922Z,3.40
2023-04-13T15:22:00.616Z,1.37
2023-04-13T15:27:06.163Z,1.57
2023-04-13T15:32:11.788Z,1.83
2023-04-13T15:37:17.277Z,2.83
2023-04-13T15:42:23.243Z,1.37
2023-04-13T15:47:29.778Z,1.70
2023-04-13T15:52:38.721Z,2.53
2023-04-13T15:57:44.324Z,2.07
2023-04-13T16:02:50.181Z,2.40
2023-04-13T16:08:03.962Z,2.83
2023-04-13T16:13:11.163Z,1.40
2023-04-13T16:18:16.683Z,9.37
2023-04-13T16:23:22.140Z,1.20
2023-04-13T16:28:28.886Z,3.07
2023-04-13T16:33:34.567Z,1.67
2023-04-13T16:38:42.735Z,1.47
2023-04-13T16:43:48.343Z,0.63
2023-04-13T16:48:53.889Z,0.90
2023-04-13T16:53:59.395Z,1.80
2023-04-13T16:59:06.856Z,1.70
2023-04-13T17:04:13.089Z,1.73
2023-04-13T17:09:18.619Z,1.43
2023-04-13T17:14:24.177Z,1.87
2023-04-13T17:19:29.744Z,1.90
2023-04-13T17:24:36.782Z,1.07
2023-04-13T17:29:42.240Z,2.20
2023-04-13T17:34:48.038Z,2.20
2023-04-13T17:39:53.487Z,1.80
2023-04-13T17:44:58.965Z,2.87
2023-04-13T17:50:04.590Z,2.57
2023-04-13T17:55:10.891Z,2.30
2023-04-13T18:00:17.127Z,4.63
2023-04-13T18:05:22.906Z,1.10
2023-04-13T18:10:28.446Z,2.10
2023-04-13T18:15:33.877Z,3.40
2023-04-13T18:20:39.523Z,1.60
2023-04-13T18:25:46.551Z,4.37
2023-04-13T18:30:52.117Z,2.10
2023-04-13T18:35:57.553Z,4.33
2023-04-13T18:41:03.472Z,2.27
2023-04-13T18:46:09.158Z,0.90
2023-04-13T18:51:14.679Z,1.57
2023-04-13T18:56:20.954Z,2.00
2023-04-13T19:01:26.578Z,2.77
2023-04-13T19:06:32.156Z,4.13
2023-04-13T19:11:49.162Z,1.27
2023-04-13T19:16:55.554Z,1.77
2023-04-13T19:22:01.246Z,4.17
2023-04-13T19:27:06.698Z,1.90
2023-04-13T19:32:15.332Z,7.30
2023-04-13T19:37:21.416Z,2.40
2023-04-13T19:42:27.119Z,1.40
2023-04-13T19:47:32.692Z,1.93
2023-04-13T19:52:38.951Z,3.43
2023-04-13T19:57:44.490Z,1.70
2023-04-13T20:02:52.622Z,4.20
2023-04-13T20:07:58.673Z,1.87
2023-04-13T20:13:04.280Z,2.03
2023-04-13T20:18:10.556Z,1.57
2023-04-13T20:23:16.605Z,2.37
2023-04-13T20:28:22.113Z,1.60
2023-04-13T20:33:27.578Z,1.87
2023-04-13T20:38:34.668Z,1.77
2023-04-13T20:43:41.453Z,2.53
2023-04-13T20:48:48.996Z,1.97
2023-04-13T20:53:55.626Z,1.43
2023-04-13T20:59:01.702Z,1.70
2023-04-13T21:04:07.361Z,2.67
2023-04-13T21:09:13.746Z,4.50
2023-04-13T21:14:20.935Z,4.27
2023-04-13T21:19:27.793Z,2.60
2023-04-13T21:24:33.321Z,1.70
2023-04-13T21:29:38.763Z,1.90
2023-04-13T21:34:44.296Z,1.50
2023-04-13T21:39:49.909Z,2.20
2023-04-13T21:44:57.281Z,2.37
2023-04-13T21:50:02.920Z,1.73
2023-04-13T21:55:10.629Z,2.30
2023-04-13T22:00:19.832Z,3.07
2023-04-13T22:05:24.619Z,1.27
2023-04-13T22:10:30.106Z,1.77
2023-04-13T22:15:35.820Z,2.93
2023-04-13T22:20:41.649Z,2.50
2023-04-13T22:25:55.958Z,2.70
2023-04-13T22:31:09.418Z,2.50
2023-04-13T22:36:20.307Z,3.60
2023-04-13T22:41:25.752Z,4.60
2023-04-13T22:46:31.533Z,2.97
2023-04-13T22:51:40.994Z,3.10
2023-04-13T22:56:47.081Z,4.77
2023-04-13T23:01:52.704Z,5.97
2023-04-13T23:06:58.452Z,3.67
2023-04-13T23:12:04.021Z,4.03
2023-04-13T23:17:09.467Z,3.07
2023-04-13T23:22:14.905Z,2.67
2023-04-13T23:27:20.604Z,3.80
2023-04-13T23:32:26.189Z,3.77
2023-04-13T23:37:31.816Z,2.37
2023-04-13T23:42:37.403Z,3.30
2023-04-13T23:47:43.127Z,6.33
2023-04-13T23:52:48.687Z,2.43
2023-04-13T23:57:54.131Z,2.37
